Time;durP1;ratioP1;P1;durP2;ratioP2;P2;SDS_P1;SDS_P2;PMS_P1;PMS_P2;Temp;Humidity;BMP_temperature;BMP_pressure;BME280_temperature;BME280_humidity;BME280_pressure;Samples;Min_cycle;Max_cycle;Signal;HPM_P1;HPM_P2
2023/02/05 00:02:02;;;;;;;6.50;4.60;;;1.90;99.90;;;;;;5064592;28;20053;-51
2023/02/05 00:04:48;;;;;;;6.40;4.32;;;1.90;99.90;;;;;;5063112;28;20370;-54
2023/02/05 00:07:35;;;;;;;6.85;4.47;;;1.90;99.90;;;;;;5050252;28;20040;-53
2023/02/05 00:10:20;;;;;;;7.47;4.55;;;2.00;99.90;;;;;;5064268;28;20021;-52
2023/02/05 00:13:07;;;;;;;7.68;4.70;;;2.00;99.90;;;;;;5064346;28;20036;-54
2023/02/05 00:15:53;;;;;;;8.00;3.90;;;2.00;99.90;;;;;;5052659;28;20021;-55
2023/02/05 00:18:39;;;;;;;5.50;3.83;;;2.00;99.90;;;;;;5053825;28;20029;-49
2023/02/05 00:21:26;;;;;;;5.88;4.45;;;2.10;99.90;;;;;;5051655;28;20116;-51
2023/02/05 00:24:11;;;;;;;5.43;4.13;;;2.00;99.90;;;;;;5052322;28;20162;-53
2023/02/05 00:26:57;;;;;;;7.18;4.22;;;2.00;99.90;;;;;;5055790;28;20052;-50
2023/02/05 00:29:43;;;;;;;7.65;4.05;;;2.00;99.90;;;;;;5063100;28;20029;-54
2023/02/05 00:32:29;;;;;;;6.82;4.43;;;2.00;99.90;;;;;;5055811;28;20025;-52
2023/02/05 00:35:15;;;;;;;6.43;4.35;;;1.90;99.90;;;;;;5051372;28;20081;-50
2023/02/05 00:38:01;;;;;;;7.30;4.05;;;1.90;99.90;;;;;;5052399;28;20031;-51
2023/02/05 00:40:47;;;;;;;6.85;4.70;;;1.70;99.90;;;;;;5051361;28;20033;-50
2023/02/05 00:43:33;;;;;;;6.25;4.05;;;1.70;99.90;;;;;;5052876;28;20413;-51
2023/02/05 00:46:19;;;;;;;6.97;4.28;;;1.70;99.90;;;;;;5051883;28;20025;-48
2023/02/05 00:49:05;;;;;;;6.75;3.95;;;1.70;99.90;;;;;;5052840;28;20021;-51
2023/02/05 00:51:51;;;;;;;7.10;4.20;;;1.70;99.90;;;;;;5051373;28;20140;-48
2023/02/05 00:54:36;;;;;;;6.00;4.00;;;1.70;99.90;;;;;;5050530;28;20017;-52
2023/02/05 00:57:23;;;;;;;6.55;4.13;;;1.70;99.90;;;;;;5049479;28;20028;-53
2023/02/05 01:00:10;;;;;;;5.95;3.95;;;1.60;99.90;;;;;;5050697;28;20033;-46
2023/02/05 01:02:55;;;;;;;8.35;4.03;;;1.60;99.90;;;;;;5036415;28;20086;-53
2023/02/05 01:05:42;;;;;;;5.43;3.83;;;1.60;99.90;;;;;;5050438;28;20598;-48
2023/02/05 01:08:28;;;;;;;5.05;3.42;;;1.60;99.90;;;;;;5050483;28;20071;-51
2023/02/05 01:11:14;;;;;;;6.00;4.13;;;1.60;99.90;;;;;;5050381;28;20025;-50
2023/02/05 01:13:59;;;;;;;7.70;4.50;;;1.50;99.90;;;;;;5050172;28;20039;-48
2023/02/05 01:16:45;;;;;;;5.60;4.20;;;1.40;99.90;;;;;;5049146;28;20027;-50
2023/02/05 01:19:33;;;;;;;5.93;4.07;;;1.40;99.90;;;;;;5050089;28;20029;-48
2023/02/05 01:22:19;;;;;;;5.88;4.18;;;1.30;99.90;;;;;;5051605;28;20052;-47
2023/02/05 01:25:06;;;;;;;6.38;4.40;;;1.40;99.90;;;;;;5049264;28;20028;-47
2023/02/05 01:27:52;;;;;;;6.43;4.18;;;1.50;99.90;;;;;;5048256;28;20029;-48
2023/02/05 01:30:38;;;;;;;5.90;4.30;;;1.50;99.90;;;;;;5035735;28;20086;-53
2023/02/05 01:33:24;;;;;;;6.88;4.47;;;1.40;99.90;;;;;;5049262;28;20025;-48
2023/02/05 01:36:10;;;;;;;6.97;4.20;;;1.40;99.90;;;;;;5049121;28;20029;-56
2023/02/05 01:38:56;;;;;;;6.97;4.25;;;1.10;99.90;;;;;;5049673;28;20532;-48
2023/02/05 01:41:44;;;;;;;7.30;4.10;;;1.00;99.90;;;;;;5052572;28;20029;-51
2023/02/05 01:44:30;;;;;;;5.03;3.75;;;0.80;99.90;;;;;;5052236;28;20397;-47
2023/02/05 01:47:16;;;;;;;6.57;3.67;;;0.70;99.90;;;;;;5054793;28;20029;-45
2023/02/05 01:50:02;;;;;;;7.10;3.70;;;0.70;99.90;;;;;;5054274;28;20029;-48
2023/02/05 01:52:48;;;;;;;7.95;4.18;;;0.70;99.90;;;;;;5054443;28;20021;-49
2023/02/05 01:55:39;;;;;;;6.07;4.00;;;0.70;99.90;;;;;;5053913;28;20029;-47
2023/02/05 01:58:34;;;;;;;5.75;4.20;;;0.70;99.90;;;;;;5054292;28;20107;-52
2023/02/05 02:01:20;;;;;;;;;;;0.80;99.90;;;;;;5054400;28;20378;-52
2023/02/05 02:04:09;;;;;;;6.57;4.22;;;0.80;99.90;;;;;;5053358;28;19968;-50
2023/02/05 02:06:55;;;;;;;10.40;5.07;;;0.60;99.90;;;;;;5053420;28;20124;-51
2023/02/05 02:09:43;;;;;;;6.65;3.85;;;0.70;99.90;;;;;;5054199;28;20040;-51
2023/02/05 02:12:35;;;;;;;8.05;4.70;;;0.80;99.90;;;;;;5055265;28;20374;-49
2023/02/05 02:15:24;;;;;;;7.10;4.10;;;0.70;99.90;;;;;;5052571;28;20563;-52
2023/02/05 02:18:26;;;;;;;6.53;3.88;;;0.80;99.90;;;;;;5067055;28;20814;-52
2023/02/05 02:21:25;;;;;;;4.90;3.60;;;0.70;99.90;;;;;;5067089;28;20111;-50
2023/02/05 02:24:37;;;;;;;6.50;4.07;;;0.70;99.90;;;;;;5047823;28;20033;-48
2023/02/05 02:27:35;;;;;;;6.07;3.67;;;0.80;99.90;;;;;;5047979;28;20068;-48
2023/02/05 02:30:55;;;;;;;5.82;3.70;;;0.80;99.90;;;;;;5053631;28;20021;-49
2023/02/05 02:33:54;;;;;;;6.43;3.88;;;0.80;99.90;;;;;;5086457;28;20063;-52
2023/02/05 02:37:02;;;;;;;6.63;3.60;;;0.80;99.90;;;;;;5067650;28;20079;-48
2023/02/05 02:40:02;;;;;;;4.93;3.45;;;0.80;99.90;;;;;;5075428;28;20024;-51
2023/02/05 02:43:00;;;;;;;6.30;3.63;;;0.90;99.90;;;;;;5085710;28;20028;-45
2023/02/05 02:45:51;;;;;;;4.68;3.38;;;0.90;99.90;;;;;;5071169;28;20020;-48
2023/02/05 02:48:40;;;;;;;6.78;3.75;;;0.90;99.90;;;;;;5088668;28;20040;-51
2023/02/05 02:51:28;;;;;;;4.72;3.50;;;0.90;99.90;;;;;;5107945;28;20058;-47
2023/02/05 02:54:17;;;;;;;6.55;3.60;;;0.90;99.90;;;;;;5104529;28;20521;-52
2023/02/05 02:57:07;;;;;;;7.90;3.85;;;0.90;99.90;;;;;;5084704;28;20035;-48
2023/02/05 02:59:59;;;;;;;5.88;3.97;;;0.80;99.90;;;;;;5087227;28;20032;-47
2023/02/05 03:02:47;;;;;;;7.30;4.38;;;0.70;99.90;;;;;;5067382;28;20031;-48
2023/02/05 03:05:34;;;;;;;7.47;3.75;;;0.60;99.90;;;;;;5066527;28;20055;-47
2023/02/05 03:08:29;;;;;;;5.35;3.75;;;0.50;99.90;;;;;;5066326;28;20496;-49
2023/02/05 03:11:15;;;;;;;5.93;3.78;;;0.40;99.90;;;;;;5070286;28;20032;-45
2023/02/05 03:14:02;;;;;;;5.72;3.38;;;0.40;99.90;;;;;;5085261;28;20051;-54
2023/02/05 03:16:47;;;;;;;3.80;3.00;;;0.40;99.90;;;;;;5073978;28;20037;-46
2023/02/05 03:19:33;;;;;;;5.18;3.60;;;0.40;99.90;;;;;;5077262;28;20032;-45
2023/02/05 03:22:19;;;;;;;6.05;3.47;;;0.50;99.90;;;;;;5091257;28;20111;-47
2023/02/05 03:25:07;;;;;;;4.72;3.30;;;0.50;99.90;;;;;;5105620;28;20034;-48
2023/02/05 03:27:54;;;;;;;6.53;3.50;;;0.50;99.90;;;;;;5079161;28;20436;-46
2023/02/05 03:31:08;;;;;;;4.90;3.58;;;0.60;99.90;;;;;;5061025;28;20025;-46
2023/02/05 03:34:28;;;;;;;5.03;3.40;;;0.60;99.90;;;;;;5070812;28;20037;-46
2023/02/05 03:37:51;;;;;;;4.93;3.22;;;0.60;99.90;;;;;;5052313;28;20033;-48
2023/02/05 03:40:48;;;;;;;8.65;3.58;;;0.50;99.90;;;;;;5052932;28;20029;-51
2023/02/05 03:44:05;;;;;;;4.82;3.65;;;0.40;99.90;;;;;;5059922;28;20349;-48
2023/02/05 03:47:23;;;;;;;4.75;3.15;;;0.50;99.90;;;;;;5052242;28;20037;-46
2023/02/05 03:50:32;;;;;;;7.03;3.65;;;0.50;99.90;;;;;;5055926;28;20109;-50
2023/02/05 03:53:30;;;;;;;6.15;3.90;;;0.60;99.90;;;;;;5072267;28;20052;-47
2023/02/05 03:56:23;;;;;;;4.78;3.17;;;0.50;99.90;;;;;;5061132;28;20025;-46
2023/02/05 03:59:10;;;;;;;6.72;3.78;;;0.40;99.90;;;;;;5057147;28;20024;-47
2023/02/05 04:01:57;;;;;;;5.35;3.70;;;0.50;99.90;;;;;;5070994;28;20051;-47
2023/02/05 04:04:43;;;;;;;3.92;3.10;;;0.50;99.90;;;;;;5085232;28;20028;-50
2023/02/05 04:07:29;;;;;;;4.55;3.03;;;0.60;99.90;;;;;;5071065;28;20454;-46
2023/02/05 04:10:16;;;;;;;6.57;3.60;;;0.60;99.90;;;;;;5089162;28;20119;-52
2023/02/05 04:13:02;;;;;;;5.32;3.15;;;0.50;99.90;;;;;;5080961;28;20381;-48
2023/02/05 04:15:49;;;;;;;5.68;3.55;;;0.40;99.90;;;;;;5090480;28;20034;-47
2023/02/05 04:18:35;;;;;;;4.28;3.03;;;0.30;99.90;;;;;;5071697;28;20400;-50
2023/02/05 04:21:21;;;;;;;7.15;3.67;;;0.30;99.90;;;;;;5075967;28;20563;-50
2023/02/05 04:24:07;;;;;;;7.18;3.85;;;0.30;99.90;;;;;;5092330;28;20474;-47
2023/02/05 04:26:53;;;;;;;4.93;3.80;;;0.40;99.90;;;;;;5085320;28;20031;-47
2023/02/05 04:29:39;;;;;;;6.22;3.95;;;0.40;99.90;;;;;;5086740;28;20028;-46
2023/02/05 04:32:25;;;;;;;6.03;3.65;;;0.50;99.90;;;;;;5089239;28;20028;-46
2023/02/05 04:35:11;;;;;;;7.03;3.50;;;0.60;99.90;;;;;;5072167;28;20121;-47
2023/02/05 04:37:57;;;;;;;5.53;3.20;;;0.60;99.90;;;;;;5077979;28;20034;-47
2023/02/05 04:40:44;;;;;;;4.18;3.33;;;0.70;99.90;;;;;;5055204;28;20025;-51
2023/02/05 04:43:30;;;;;;;5.35;3.53;;;0.70;99.90;;;;;;5071764;28;20028;-50
2023/02/05 04:46:16;;;;;;;7.22;3.63;;;0.60;99.90;;;;;;5087443;28;20025;-49
2023/02/05 04:49:02;;;;;;;8.10;5.55;;;0.60;99.90;;;;;;5079088;28;20020;-51
2023/02/05 04:51:48;;;;;;;6.65;3.75;;;0.50;99.90;;;;;;5092423;28;20050;-48
2023/02/05 04:54:36;;;;;;;4.35;3.10;;;0.30;99.90;;;;;;5081063;28;20063;-47
2023/02/05 04:57:23;;;;;;;7.50;3.58;;;0.20;99.90;;;;;;5074116;28;20036;-49
2023/02/05 05:00:09;;;;;;;5.88;3.55;;;0.30;99.90;;;;;;5093128;28;20028;-50
2023/02/05 05:02:56;;;;;;;6.70;3.53;;;0.40;99.90;;;;;;5057538;28;20030;-48
2023/02/05 05:05:42;;;;;;;8.57;5.10;;;0.40;99.90;;;;;;5071266;28;20396;-48
2023/02/05 05:08:28;;;;;;;5.28;3.72;;;0.40;99.90;;;;;;5071553;28;20483;-51
2023/02/05 05:11:16;;;;;;;5.45;3.40;;;0.30;99.90;;;;;;5073114;28;20505;-50
2023/02/05 05:14:02;;;;;;;5.90;3.38;;;0.30;99.90;;;;;;5084827;28;20472;-49
2023/02/05 05:16:49;;;;;;;7.10;3.60;;;0.40;99.90;;;;;;5082743;28;20481;-47
2023/02/05 05:19:35;;;;;;;6.22;3.83;;;0.50;99.90;;;;;;5071724;28;20025;-52
2023/02/05 05:22:21;;;;;;;6.18;4.10;;;0.50;99.90;;;;;;5087014;28;20024;-47
2023/02/05 05:25:07;;;;;;;7.68;4.35;;;0.50;99.90;;;;;;5090005;28;20111;-50
2023/02/05 05:27:53;;;;;;;4.85;3.60;;;0.40;99.90;;;;;;5055639;28;20083;-47
2023/02/05 05:30:40;;;;;;;6.30;3.53;;;0.40;99.90;;;;;;5072074;28;20071;-50
2023/02/05 05:33:26;;;;;;;7.72;4.18;;;0.50;99.90;;;;;;5089222;28;20028;-47
2023/02/05 05:36:13;;;;;;;5.75;3.55;;;0.50;99.90;;;;;;5084278;28;20082;-46
2023/02/05 05:43:45;;;;;;;3.97;3.05;;;0.50;99.90;;;;;;5078579;28;20035;-49
2023/02/05 05:45:10;;;;;;;8.50;3.77;;;0.50;99.90;;;;;;5069401;28;20028;-46
2023/02/05 05:47:55;;;;;;;4.28;3.55;;;0.50;99.90;;;;;;5073406;28;20094;-46
2023/02/05 05:50:41;;;;;;;7.13;4.13;;;0.50;99.90;;;;;;5089242;28;20035;-47
2023/02/05 05:53:27;;;;;;;6.35;4.10;;;0.40;99.90;;;;;;5057388;28;20036;-49
2023/02/05 05:56:14;;;;;;;5.53;3.78;;;0.30;99.90;;;;;;5069329;28;20044;-47
2023/02/05 05:59:00;;;;;;;6.15;3.80;;;0.30;99.90;;;;;;5070486;28;20731;-48
2023/02/05 06:01:46;;;;;;;19.58;4.50;;;0.30;99.90;;;;;;5084547;28;20078;-47
2023/02/05 06:04:31;;;;;;;6.85;3.80;;;0.30;99.90;;;;;;5071390;28;20508;-52
2023/02/05 06:07:17;;;;;;;6.47;3.53;;;0.40;99.90;;;;;;5071781;28;20043;-48
2023/02/05 06:10:04;;;;;;;6.43;3.53;;;0.40;99.90;;;;;;5069755;28;20025;-46
2023/02/05 06:12:51;;;;;;;5.28;3.47;;;0.30;99.90;;;;;;5063834;28;20027;-46
2023/02/05 06:15:37;;;;;;;5.20;4.15;;;0.20;99.90;;;;;;5083574;28;20074;-49
2023/02/05 06:18:23;;;;;;;7.20;4.15;;;0.10;99.90;;;;;;5074899;28;20035;-46
2023/02/05 06:21:09;;;;;;;7.40;3.78;;;0.10;99.90;;;;;;5088947;28;20024;-46
2023/02/05 06:23:55;;;;;;;5.18;3.75;;;0.00;99.90;;;;;;5069488;28;20040;-46
2023/02/05 06:26:41;;;;;;;5.60;3.67;;;0.10;99.90;;;;;;5073567;28;20035;-48
2023/02/05 06:29:27;;;;;;;9.10;4.10;;;0.10;99.90;;;;;;5070197;28;20033;-52
2023/02/05 06:32:13;;;;;;;6.53;3.92;;;0.00;99.90;;;;;;5077662;28;20098;-52
2023/02/05 06:34:59;;;;;;;5.00;3.80;;;-0.10;99.90;;;;;;5081477;28;20028;-51
2023/02/05 06:37:45;;;;;;;5.78;3.63;;;-0.20;99.90;;;;;;5072551;28;20064;-51
2023/02/05 06:40:31;;;;;;;7.47;4.30;;;-0.20;99.90;;;;;;5069366;28;20020;-51
2023/02/05 06:43:17;;;;;;;7.03;4.28;;;-0.10;99.90;;;;;;5071409;28;20033;-50
2023/02/05 06:46:03;;;;;;;6.47;3.88;;;0.00;99.90;;;;;;5054687;28;20655;-47
2023/02/05 06:48:49;;;;;;;7.00;4.82;;;0.10;99.90;;;;;;5070611;28;20061;-45
2023/02/05 06:51:35;;;;;;;6.32;4.28;;;0.30;99.90;;;;;;5081924;28;20107;-44
2023/02/05 06:54:21;;;;;;;7.07;4.32;;;0.40;99.90;;;;;;5068527;28;20036;-47
2023/02/05 06:57:06;;;;;;;8.40;5.68;;;0.50;99.90;;;;;;5070023;28;20039;-46
2023/02/05 06:59:52;;;;;;;8.75;5.75;;;0.40;99.90;;;;;;5089158;28;20032;-46
2023/02/05 07:02:38;;;;;;;7.50;5.95;;;0.10;99.90;;;;;;5072287;28;20036;-49
2023/02/05 07:05:24;;;;;;;7.10;5.03;;;0.10;99.90;;;;;;5074293;28;20033;-49
2023/02/05 07:08:10;;;;;;;6.78;4.55;;;0.00;99.90;;;;;;5089661;28;20028;-50
2023/02/05 07:10:56;;;;;;;7.97;4.30;;;0.10;99.90;;;;;;5073406;28;20078;-51
2023/02/05 07:13:42;;;;;;;6.75;4.30;;;0.10;99.90;;;;;;5086156;28;20447;-54
2023/02/05 07:16:29;;;;;;;4.90;4.40;;;0.10;99.90;;;;;;5080121;28;20032;-52
2023/02/05 07:19:16;;;;;;;6.70;4.05;;;0.00;99.90;;;;;;5092910;28;20013;-50
2023/02/05 07:22:02;;;;;;;5.53;4.28;;;0.10;99.90;;;;;;5080690;28;20036;-45
2023/02/05 07:24:48;;;;;;;6.72;4.22;;;0.10;99.90;;;;;;5074835;28;20025;-48
2023/02/05 07:27:34;;;;;;;9.60;4.38;;;0.10;99.90;;;;;;5061857;28;20028;-46
2023/02/05 07:30:20;;;;;;;5.28;4.32;;;0.00;99.90;;;;;;5074872;28;20033;-49
2023/02/05 07:33:08;;;;;;;7.18;4.80;;;0.00;99.90;;;;;;5081705;28;20453;-48
2023/02/05 07:35:54;;;;;;;9.07;4.80;;;-0.10;99.90;;;;;;5091221;28;20017;-46
2023/02/05 07:38:40;;;;;;;8.32;4.95;;;-0.20;99.90;;;;;;5087715;28;20044;-47
2023/02/05 07:41:26;;;;;;;9.07;4.85;;;-0.30;99.90;;;;;;5085131;28;20048;-52
2023/02/05 07:44:12;;;;;;;7.03;4.40;;;-0.20;99.90;;;;;;5078164;28;20027;-45
2023/02/05 07:46:58;;;;;;;5.85;4.47;;;-0.10;99.90;;;;;;5091843;28;20028;-47
2023/02/05 07:49:44;;;;;;;7.25;4.60;;;0.00;99.90;;;;;;5082651;28;20123;-52
2023/02/05 07:52:30;;;;;;;7.93;4.70;;;0.10;99.90;;;;;;5072354;28;20041;-48
2023/02/05 07:55:16;;;;;;;10.48;5.30;;;0.30;99.90;;;;;;5084146;28;20040;-52
2023/02/05 07:58:02;;;;;;;9.98;5.03;;;0.30;99.90;;;;;;5079251;28;20034;-51
2023/02/05 08:00:48;;;;;;;6.75;5.35;;;0.40;99.90;;;;;;5078415;28;20031;-50
2023/02/05 08:03:34;;;;;;;7.82;5.03;;;0.40;99.90;;;;;;5092954;28;20021;-47
2023/02/05 08:06:20;;;;;;;7.68;4.93;;;0.50;99.90;;;;;;5089948;28;20158;-47
2023/02/05 08:09:06;;;;;;;9.48;4.68;;;0.60;99.90;;;;;;5080162;28;20126;-51
2023/02/05 08:11:52;;;;;;;6.45;5.03;;;0.70;99.90;;;;;;5071985;28;20060;-51
2023/02/05 08:14:38;;;;;;;9.57;6.18;;;0.70;99.90;;;;;;5073630;28;20025;-52
2023/02/05 08:17:24;;;;;;;14.48;7.15;;;0.70;99.90;;;;;;5071063;28;20111;-48
2023/02/05 08:20:10;;;;;;;7.78;5.75;;;0.80;99.90;;;;;;5072600;28;20031;-50
2023/02/05 08:22:56;;;;;;;9.60;5.85;;;0.80;99.90;;;;;;5083797;28;20036;-53
2023/02/05 08:25:42;;;;;;;9.95;6.18;;;0.90;99.90;;;;;;5090850;28;20160;-50
2023/02/05 08:28:28;;;;;;;10.65;6.25;;;1.00;99.90;;;;;;5059720;28;20107;-51
2023/02/05 08:31:17;;;;;;;8.07;5.53;;;1.00;99.90;;;;;;5074229;28;20036;-51
2023/02/05 08:34:03;;;;;;;10.57;6.45;;;1.00;99.90;;;;;;5091649;28;20016;-50
2023/02/05 08:36:49;;;;;;;7.47;6.60;;;1.10;99.90;;;;;;5084966;28;20078;-48
2023/02/05 08:39:36;;;;;;;8.30;6.20;;;1.10;99.90;;;;;;5071505;28;20492;-49
2023/02/05 08:42:23;;;;;;;11.35;6.88;;;1.00;99.90;;;;;;5087174;28;20503;-52
2023/02/05 08:45:09;;;;;;;12.60;7.63;;;1.00;99.90;;;;;;5075817;28;20060;-52
2023/02/05 08:47:56;;;;;;;9.23;7.05;;;1.00;99.90;;;;;;5073606;28;20025;-51
2023/02/05 08:50:44;;;;;;;12.45;7.65;;;1.00;99.90;;;;;;5064541;28;20107;-47
2023/02/05 08:53:31;;;;;;;13.13;8.48;;;1.00;99.90;;;;;;5091026;28;20028;-47
2023/02/05 08:56:17;;;;;;;12.57;8.43;;;0.90;99.90;;;;;;5088740;28;20035;-49
2023/02/05 08:59:03;;;;;;;13.02;8.93;;;1.00;99.90;;;;;;5091295;28;20110;-50
2023/02/05 09:01:49;;;;;;;13.88;8.88;;;1.10;99.90;;;;;;5090552;28;20024;-53
2023/02/05 09:04:35;;;;;;;13.75;9.30;;;1.00;99.90;;;;;;5090971;28;20069;-47
2023/02/05 09:07:21;;;;;;;13.85;9.57;;;1.10;99.90;;;;;;5079746;28;20040;-47
2023/02/05 09:10:09;;;;;;;10.95;9.80;;;1.20;99.90;;;;;;5087382;28;20039;-50
2023/02/05 09:12:55;;;;;;;10.75;8.55;;;1.30;99.90;;;;;;5077084;28;20039;-48
2023/02/05 09:15:42;;;;;;;10.68;8.55;;;1.30;99.90;;;;;;5074890;28;20115;-47
2023/02/05 09:18:29;;;;;;;12.18;9.40;;;1.40;99.90;;;;;;5082061;28;20024;-51
2023/02/05 09:21:15;;;;;;;13.75;8.90;;;1.40;99.90;;;;;;5080901;28;20028;-48
2023/02/05 09:24:01;;;;;;;12.15;8.43;;;1.50;99.90;;;;;;5071410;28;20492;-51
2023/02/05 09:26:47;;;;;;;13.93;8.60;;;1.50;99.90;;;;;;5083155;28;20032;-51
2023/02/05 09:29:32;;;;;;;11.32;8.07;;;1.60;99.90;;;;;;5083709;28;20436;-53
2023/02/05 09:32:18;;;;;;;10.70;7.93;;;1.60;99.90;;;;;;5070761;28;20390;-47
2023/02/05 09:35:05;;;;;;;16.23;9.75;;;1.80;99.90;;;;;;5089377;28;20107;-47
2023/02/05 09:37:50;;;;;;;11.95;8.27;;;1.80;99.90;;;;;;5090540;28;20407;-49
2023/02/05 09:40:55;;;;;;;11.30;9.02;;;1.80;99.90;;;;;;5070026;28;20029;-49
2023/02/05 09:43:51;;;;;;;14.10;8.45;;;1.80;99.90;;;;;;5088031;28;20032;-49
2023/02/05 09:46:52;;;;;;;10.07;8.40;;;1.90;99.90;;;;;;5085071;28;20055;-51
2023/02/05 09:49:54;;;;;;;13.02;8.30;;;2.00;99.90;;;;;;5087277;28;20044;-52
2023/02/05 09:52:48;;;;;;;13.88;9.55;;;2.10;99.90;;;;;;5089542;28;20063;-48
2023/02/05 09:55:43;;;;;;;12.32;9.10;;;2.10;99.90;;;;;;5087387;28;20043;-51
2023/02/05 09:58:36;;;;;;;12.38;8.90;;;2.10;99.90;;;;;;5069967;28;20032;-48
2023/02/05 10:01:48;;;;;;;16.58;12.25;;;2.20;99.90;;;;;;5081675;28;20061;-48
2023/02/05 10:04:34;;;;;;;10.90;9.13;;;2.10;99.90;;;;;;5088149;28;20500;-50
2023/02/05 10:07:47;;;;;;;13.20;8.90;;;2.20;99.90;;;;;;5089158;28;20508;-52
2023/02/05 10:10:42;;;;;;;15.70;8.68;;;2.20;99.90;;;;;;5079375;28;20107;-49
2023/02/05 10:13:38;;;;;;;10.55;8.45;;;2.40;99.90;;;;;;5071570;28;20055;-48
2023/02/05 10:16:39;;;;;;;12.02;9.80;;;2.50;99.90;;;;;;5087576;28;20028;-51
2023/02/05 10:19:58;;;;;;;14.80;11.45;;;2.60;99.90;;;;;;5087985;28;20108;-51
2023/02/05 10:23:28;;;;;;;11.02;9.38;;;2.70;99.90;;;;;;5084673;28;20052;-50
2023/02/05 10:26:17;;;;;;;13.55;9.32;;;2.70;99.90;;;;;;5077186;28;20024;-47
2023/02/05 10:29:16;;;;;;;11.82;8.82;;;2.60;99.90;;;;;;5090167;28;20029;-45
2023/02/05 10:32:28;;;;;;;10.38;8.65;;;2.60;99.90;;;;;;5083072;28;20020;-48
2023/02/05 10:35:29;;;;;;;11.23;8.57;;;2.70;99.90;;;;;;5070432;28;20041;-48
2023/02/05 10:38:23;;;;;;;11.38;9.27;;;2.70;99.90;;;;;;5070379;28;20116;-49
2023/02/05 10:41:16;;;;;;;13.63;9.90;;;2.70;99.90;;;;;;5074762;28;20408;-47
2023/02/05 10:44:11;;;;;;;15.70;10.63;;;2.80;99.90;;;;;;5078496;28;20108;-51
2023/02/05 10:47:06;;;;;;;17.40;11.43;;;2.80;99.90;;;;;;5093044;28;20055;-47
2023/02/05 10:50:24;;;;;;;13.45;9.40;;;2.60;99.90;;;;;;5092753;28;20044;-52
2023/02/05 10:53:10;;;;;;;11.70;8.90;;;2.60;99.90;;;;;;5082568;28;20028;-49
2023/02/05 10:55:59;;;;;;;14.77;9.27;;;2.60;99.90;;;;;;5077882;28;20104;-50
2023/02/05 10:58:48;;;;;;;14.73;10.13;;;2.70;99.90;;;;;;5093509;28;20434;-53
2023/02/05 11:01:37;;;;;;;12.07;9.23;;;2.70;99.90;;;;;;5084306;28;20025;-50
2023/02/05 11:04:49;;;;;;;16.15;10.82;;;2.80;99.90;;;;;;5073588;28;20465;-50
2023/02/05 11:07:49;;;;;;;14.15;10.30;;;2.80;99.90;;;;;;5078503;28;20028;-51
2023/02/05 11:10:35;;;;;;;16.00;10.65;;;2.80;99.90;;;;;;5073273;28;20074;-52
2023/02/05 11:13:21;;;;;;;19.25;12.48;;;2.90;99.90;;;;;;5093208;28;20507;-50
2023/02/05 11:16:08;;;;;;;13.93;9.70;;;2.90;99.90;;;;;;5090342;28;20484;-47
2023/02/05 11:19:00;;;;;;;13.30;9.45;;;2.90;99.90;;;;;;5092817;28;20039;-48
2023/02/05 11:21:53;;;;;;;14.40;9.38;;;2.90;99.90;;;;;;5087035;28;20032;-47
2023/02/05 11:24:39;;;;;;;13.48;9.52;;;3.00;99.90;;;;;;5074179;28;20555;-47
2023/02/05 11:27:28;;;;;;;16.08;9.85;;;3.10;99.90;;;;;;5085641;28;20158;-49
2023/02/05 11:30:26;;;;;;;15.52;9.63;;;3.20;99.90;;;;;;5092877;28;20036;-48
2023/02/05 11:33:22;;;;;;;17.00;10.85;;;3.30;99.90;;;;;;5092400;28;20488;-49
2023/02/05 11:36:23;;;;;;;12.07;9.13;;;3.20;99.90;;;;;;5092112;28;20416;-58
2023/02/05 11:39:29;;;;;;;13.93;9.55;;;3.10;99.90;;;;;;5089135;28;20531;-52
2023/02/05 11:42:24;;;;;;;15.90;10.02;;;3.00;99.90;;;;;;5076215;28;20039;-50
2023/02/05 11:45:15;;;;;;;13.80;10.53;;;3.00;99.90;;;;;;5058642;28;20039;-51
2023/02/05 11:48:05;;;;;;;13.10;10.15;;;3.10;99.90;;;;;;5078775;28;20827;-47
2023/02/05 11:50:51;;;;;;;13.50;9.88;;;3.00;99.90;;;;;;5084157;28;20039;-45
2023/02/05 11:53:49;;;;;;;13.75;9.65;;;3.20;99.90;;;;;;5078103;28;20032;-48
2023/02/05 11:56:35;;;;;;;14.95;11.50;;;3.30;99.90;;;;;;5072434;28;20105;-47
2023/02/05 11:59:21;;;;;;;16.48;10.75;;;3.40;99.90;;;;;;5059966;28;20472;-51
2023/02/05 12:02:28;;;;;;;13.85;10.15;;;3.40;99.90;;;;;;5091262;28;20036;-49
2023/02/05 12:05:22;;;;;;;16.45;11.27;;;3.50;99.90;;;;;;5082339;28;20031;-49
2023/02/05 12:08:23;;;;;;;17.50;12.65;;;3.50;99.90;;;;;;5073001;28;20035;-51
2023/02/05 12:11:27;;;;;;;15.13;11.65;;;3.40;99.90;;;;;;5086575;28;20407;-47
2023/02/05 12:14:37;;;;;;;16.00;10.88;;;3.40;99.90;;;;;;5072733;28;20480;-51
2023/02/05 12:17:41;;;;;;;18.63;11.60;;;3.50;99.90;;;;;;5071228;28;20079;-49
2023/02/05 12:20:29;;;;;;;24.23;12.93;;;3.50;99.90;;;;;;5072982;28;20024;-51
2023/02/05 12:23:30;;;;;;;15.85;11.48;;;3.70;99.90;;;;;;5089441;28;20647;-51
2023/02/05 12:26:24;;;;;;;16.30;10.48;;;3.90;99.90;;;;;;5090808;28;20516;-51
2023/02/05 12:29:12;;;;;;;14.73;10.43;;;4.10;99.90;;;;;;5091157;28;20077;-49
2023/02/05 12:32:24;;;;;;;15.80;10.60;;;4.30;99.90;;;;;;5072107;28;20016;-50
2023/02/05 12:35:15;;;;;;;16.25;10.93;;;4.40;99.90;;;;;;5074862;28;20020;-50
2023/02/05 12:38:16;;;;;;;14.65;11.38;;;4.40;99.90;;;;;;5075882;28;20095;-54
2023/02/05 12:41:21;;;;;;;15.52;11.45;;;4.30;99.90;;;;;;5080556;28;20028;-49
2023/02/05 12:44:25;;;;;;;12.68;11.23;;;4.40;99.90;;;;;;5072519;28;20028;-52
2023/02/05 12:47:36;;;;;;;12.65;10.52;;;4.50;99.90;;;;;;5089688;28;20029;-50
2023/02/05 12:50:49;;;;;;;14.32;11.02;;;4.50;99.90;;;;;;5079785;28;20118;-50
2023/02/05 12:53:58;;;;;;;15.27;10.80;;;4.40;99.90;;;;;;5071812;28;20401;-48
2023/02/05 12:56:59;;;;;;;16.15;10.15;;;4.50;99.90;;;;;;5070983;28;20416;-50
2023/02/05 13:00:04;;;;;;;13.65;10.07;;;4.50;99.90;;;;;;5072091;28;20024;-48
2023/02/05 13:03:07;;;;;;;13.75;9.73;;;4.60;99.90;;;;;;5083429;28;20065;-50
2023/02/05 13:06:04;;;;;;;12.70;8.68;;;4.70;99.90;;;;;;5084445;28;20020;-50
2023/02/05 13:09:05;;;;;;;19.77;13.80;;;4.80;99.90;;;;;;5070877;28;20036;-51
2023/02/05 13:11:59;;;;;;;12.20;9.57;;;4.90;99.90;;;;;;5062823;28;20028;-50
2023/02/05 13:14:55;;;;;;;10.07;7.95;;;5.00;99.90;;;;;;5071589;28;20111;-50
2023/02/05 13:17:54;;;;;;;11.02;9.25;;;5.10;99.90;;;;;;5073861;28;20111;-54
2023/02/05 13:29:58;;;;;;;11.40;8.95;;;4.90;99.90;;;;;;5070917;28;20036;-45
2023/02/05 13:32:49;;;;;;;12.35;8.38;;;4.80;99.90;;;;;;5071071;28;20029;-50
2023/02/05 13:35:47;;;;;;;9.63;7.90;;;4.60;99.90;;;;;;5069681;28;20033;-52
2023/02/05 13:39:17;;;;;;;10.88;8.38;;;4.50;99.90;;;;;;5088247;28;20132;-51
2023/02/05 13:42:27;;;;;;;9.95;7.40;;;4.40;99.90;;;;;;5013273;28;20021;-55
2023/02/05 13:45:58;;;;;;;11.07;7.82;;;4.40;99.90;;;;;;5071610;28;20030;-53
2023/02/05 13:48:47;;;;;;;11.68;7.22;;;4.70;99.90;;;;;;5061568;28;20085;-52
2023/02/05 13:52:08;;;;;;;8.70;7.40;;;5.10;99.90;;;;;;5056365;28;20077;-62
2023/02/05 13:55:42;;;;;;;9.52;7.70;;;5.00;99.90;;;;;;5074185;28;20416;-52
2023/02/05 13:58:29;;;;;;;9.70;7.18;;;4.70;99.90;;;;;;5070691;28;20123;-51
2023/02/05 14:01:21;;;;;;;9.15;7.30;;;4.50;99.90;;;;;;5088382;28;20039;-51
2023/02/05 14:04:19;;;;;;;10.02;6.97;;;4.60;99.90;;;;;;5080139;28;20027;-51
2023/02/05 14:07:11;;;;;;;12.30;6.90;;;4.50;99.90;;;;;;5083566;28;20024;-50
2023/02/05 14:09:59;;;;;;;11.13;7.78;;;4.50;99.90;;;;;;5073449;28;20112;-48
2023/02/05 14:12:45;;;;;;;8.48;6.60;;;4.50;99.90;;;;;;5070324;28;20040;-52
2023/02/05 14:15:39;;;;;;;8.95;6.88;;;4.50;99.90;;;;;;5071416;28;20021;-53
2023/02/05 14:18:43;;;;;;;7.38;6.15;;;4.50;99.90;;;;;;5070514;28;20116;-51
2023/02/05 14:21:29;;;;;;;10.48;6.75;;;4.50;99.70;;;;;;5083848;28;20065;-55
2023/02/05 14:24:38;;;;;;;10.15;6.28;;;4.50;99.70;;;;;;5084391;28;20392;-54
2023/02/05 14:27:36;;;;;;;7.78;6.15;;;4.50;99.70;;;;;;5088789;28;20020;-56
2023/02/05 14:30:29;;;;;;;9.60;5.93;;;4.40;99.90;;;;;;5090619;28;20024;-55
2023/02/05 14:33:41;;;;;;;8.18;6.22;;;4.50;99.90;;;;;;5088927;28;20028;-52
2023/02/05 14:36:31;;;;;;;9.35;6.25;;;4.50;99.90;;;;;;5075137;28;20484;-54
2023/02/05 14:39:24;;;;;;;8.10;5.60;;;4.40;99.80;;;;;;5089515;28;20031;-51
2023/02/05 14:42:20;;;;;;;8.45;6.25;;;4.50;99.90;;;;;;5088505;28;20028;-53
2023/02/05 14:45:12;;;;;;;8.52;6.65;;;4.60;99.80;;;;;;5088000;28;20031;-51
2023/02/05 14:47:58;;;;;;;9.48;6.50;;;4.80;99.60;;;;;;5074655;28;20040;-52
2023/02/05 14:50:44;;;;;;;7.18;5.95;;;5.10;99.30;;;;;;5083386;28;20028;-52
2023/02/05 14:53:31;;;;;;;11.02;6.15;;;5.50;98.80;;;;;;5069544;28;20523;-55
2023/02/05 14:56:38;;;;;;;6.75;5.72;;;5.70;98.00;;;;;;5069773;28;20040;-54
2023/02/05 14:59:36;;;;;;;7.93;6.07;;;6.00;97.70;;;;;;5054498;28;20040;-52
2023/02/05 15:02:56;;;;;;;8.13;6.18;;;5.90;97.40;;;;;;5087381;28;20070;-55
2023/02/05 15:05:42;;;;;;;11.65;6.25;;;5.70;97.70;;;;;;5085455;28;20024;-54
2023/02/05 15:08:34;;;;;;;8.00;5.75;;;5.50;98.60;;;;;;5069353;28;20501;-56
2023/02/05 15:11:28;;;;;;;6.30;5.65;;;5.40;99.60;;;;;;5063757;28;20028;-56
2023/02/05 15:14:20;;;;;;;7.85;5.68;;;5.30;99.50;;;;;;5088809;28;20500;-51